Michigan Trader — V2DO6 — position and weather

sailwx.info

Track history (hours):
 
Tides and Currents Weather Stations Pressure Air Temp Water Temp Dewpoint Dewpoint Depression Visibility Wind Speed Wind Dir Waves Ship Positions

Michigan Trader

Last reported at 2017-Oct-20 03:30 UTC. Time now 2017-Oct-20 03:36 UTC.
Position N 43°05' E 027°57'.

Length 166 m; draft 9 m.

Type: Ship (hazmat cat D). MMSI: 305282000.

Date/timePositionNaut miles runAvg speedWind from/ knotsBaromVisibWave heightAir tempDewpointWater temp
2017-Oct-20 03:30N 43°05' E 027°57'0 0.1
2017-Oct-20 03:00N 43°05' E 027°57'0 0.0
2017-Oct-20 02:30N 43°05' E 027°57'0 0.0
2017-Oct-20 02:00N 43°05' E 027°57'0 0.0
2017-Oct-20 01:30N 43°05' E 027°57'0 0.0
2017-Oct-20 01:00N 43°05' E 027°57'0 0.0
2017-Oct-20 00:30N 43°05' E 027°57'0 0.0
2017-Oct-19 23:50N 43°05' E 027°57'0 0.0
2017-Oct-19 23:20N 43°05' E 027°57'0 0.0
2017-Oct-19 22:50N 43°05' E 027°57'0 0.0
2017-Oct-19 22:26N 43°05' E 027°57'0 0.0
2017-Oct-19 22:00N 43°05' E 027°57'0 0.0
2017-Oct-19 15:20N 43°05' E 027°56'0 0.0
2017-Oct-19 14:42N 43°05' E 027°56'0 0.0
2017-Oct-19 14:30N 43°05' E 027°56'0 0.0
2017-Oct-19 07:08N 43°05' E 027°57'0 0.1
2017-Oct-19 06:50N 43°05' E 027°57'0 0.4
2017-Oct-19 06:25N 43°05' E 027°57'7 7.2
2017-Oct-19 05:30N 43°11' E 027°59'813.2
2017-Oct-19 04:56N 43°14' E 028°09'613.4
2017-Oct-19 04:29N 43°17' E 028°16'613.3
2017-Oct-19 04:00N 43°19' E 028°24'713.1
2017-Oct-19 03:31N 43°21' E 028°33'612.3
2017-Oct-19 03:01N 43°22' E 028°41'713.4
2017-Oct-19 02:30N 43°28' E 028°44'713.4
2017-Oct-19 02:01N 43°35' E 028°46'713.3
2017-Oct-19 01:30N 43°41' E 028°48'612.5
2017-Oct-19 01:01N 43°48' E 028°49'612.4
2017-Oct-19 00:31N 43°54' E 028°49'612.1
2017-Oct-19 00:00N 43°60' E 028°47'611.2
2017-Oct-18 23:30N 44°04' E 028°43'3 6.2
2017-Oct-18 23:01N 44°07' E 028°40'0 0.6
2017-Oct-18 22:30N 44°06' E 028°40'0 0.0
2017-Oct-18 22:00N 44°06' E 028°40'0 0.0
2017-Oct-18 21:30N 44°06' E 028°40'0 0.0
2017-Oct-18 21:00N 44°06' E 028°40'0 0.0
2017-Oct-18 20:30N 44°06' E 028°40'0 0.0
2017-Oct-18 19:59N 44°06' E 028°40'0 0.0
2017-Oct-18 19:29N 44°06' E 028°40'0 0.0
2017-Oct-18 18:59N 44°06' E 028°40'0 0.0
2017-Oct-18 18:29N 44°06' E 028°40'0 0.0
2017-Oct-18 17:59N 44°06' E 028°40'0 0.0
2017-Oct-18 17:29N 44°06' E 028°40'0 0.0
2017-Oct-18 16:56N 44°06' E 028°40'0 0.0
2017-Oct-18 16:26N 44°06' E 028°40'0 0.0
2017-Oct-18 15:59N 44°06' E 028°40'0 0.0
2017-Oct-18 15:29N 44°06' E 028°40'0 0.0
2017-Oct-18 15:01N 44°06' E 028°40'4 4.3
2017-Oct-18 14:01N 44°04' E 028°45'510.6
2017-Oct-18 13:31N 44°00' E 028°50'713.2
2017-Oct-18 13:01N 44°00' E 028°59'713.2
2017-Oct-18 12:31N 44°00' E 029°08'713.3
2017-Oct-18 12:01N 44°00' E 029°17'713.4
2017-Oct-18 11:30N 44°00' E 029°27'713.4
2017-Oct-18 11:01N 44°00' E 029°36'713.5
2017-Oct-18 10:31N 44°00' E 029°45'2713.7
2017-Oct-18 08:34N 44°00' E 030°22'113.7
2017-Oct-18 08:30N 44°00' E 030°23'29313.3
2017-Oct-17 10:29N 44°21' E 037°11'713.2
2017-Oct-17 09:59N 44°24' E 037°19'613.2
2017-Oct-17 09:30N 44°27' E 037°27'713.0
2017-Oct-17 09:00N 44°30' E 037°35'612.3
2017-Oct-17 08:30N 44°34' E 037°42'5 9.5
2017-Oct-17 08:00N 44°37' E 037°47'4 8.9
2017-Oct-17 07:30N 44°41' E 037°50'2 4.6
2017-Oct-17 07:00N 44°43' E 037°49'0 0.0
2017-Oct-17 06:30N 44°43' E 037°49'0 0.0
2017-Oct-17 06:00N 44°43' E 037°49'0 0.0
2017-Oct-17 05:30N 44°43' E 037°49'0 0.0
2017-Oct-17 04:59N 44°43' E 037°49'0 0.0
2017-Oct-17 04:30N 44°43' E 037°49'0 0.0
2017-Oct-17 04:00N 44°43' E 037°49'0 0.0
2017-Oct-17 03:14N 44°43' E 037°49'0 0.0
2017-Oct-17 03:00N 44°43' E 037°49'0 0.0
2017-Oct-17 02:30N 44°43' E 037°49'0 0.0
2017-Oct-17 02:00N 44°43' E 037°49'0 0.0
2017-Oct-17 01:29N 44°43' E 037°49'0 0.0
2017-Oct-17 01:00N 44°43' E 037°49'0 0.0
2017-Oct-17 00:23N 44°43' E 037°49'0 0.0
2017-Oct-16 23:59N 44°43' E 037°49'0 0.0
2017-Oct-16 23:29N 44°43' E 037°49'0 0.0
2017-Oct-16 22:59N 44°43' E 037°49'0 0.0
2017-Oct-16 22:30N 44°43' E 037°49'0 0.0
2017-Oct-16 22:00N 44°43' E 037°49'0 0.0
2017-Oct-16 21:30N 44°43' E 037°49'0 0.0
2017-Oct-16 21:00N 44°43' E 037°49'0 0.0
2017-Oct-16 20:29N 44°43' E 037°49'0 0.0
2017-Oct-16 20:00N 44°43' E 037°49'0 0.0
2017-Oct-16 19:29N 44°43' E 037°49'0 0.0
2017-Oct-16 19:00N 44°43' E 037°49'0 0.0
2017-Oct-16 18:06N 44°43' E 037°49'0 0.0
2017-Oct-16 18:00N 44°43' E 037°49'0 0.0
2017-Oct-16 17:30N 44°43' E 037°49'0 0.0
2017-Oct-16 16:59N 44°43' E 037°49'0 0.0
2017-Oct-16 16:29N 44°43' E 037°49'0 0.0
2017-Oct-16 16:00N 44°43' E 037°49'0 0.0
2017-Oct-16 15:30N 44°43' E 037°49'0 0.0
2017-Oct-16 14:59N 44°43' E 037°49'0 0.0
2017-Oct-16 14:00N 44°43' E 037°49'0 0.0
2017-Oct-16 13:30N 44°43' E 037°49'0 0.0
2017-Oct-16 13:00N 44°43' E 037°49'0 0.0
2017-Oct-16 12:30N 44°43' E 037°49'0 0.0
2017-Oct-16 12:00N 44°43' E 037°49'0 0.0
2017-Oct-16 11:28N 44°43' E 037°49'0 0.0
2017-Oct-16 10:58N 44°43' E 037°49'0 0.0
2017-Oct-16 10:25N 44°43' E 037°49'0 0.0
2017-Oct-16 09:58N 44°43' E 037°49'0 0.0
2017-Oct-16 09:28N 44°43' E 037°49'0 0.0
2017-Oct-16 08:55N 44°43' E 037°49'0 0.0
2017-Oct-16 08:28N 44°43' E 037°49'0 0.0
2017-Oct-16 07:58N 44°43' E 037°49'0 0.0
2017-Oct-16 07:22N 44°43' E 037°49'0 0.0
2017-Oct-16 06:58N 44°43' E 037°49'0 0.4
2017-Oct-16 06:30N 44°43' E 037°49'3 5.0
2017-Oct-16 06:00N 44°41' E 037°50'4 7.7
2017-Oct-16 05:30N 44°37' E 037°52'3 6.3
2017-Oct-16 05:00N 44°34' E 037°51'510.5
2017-Oct-16 04:30N 44°30' E 037°47'611.1
2017-Oct-16 04:00N 44°26' E 037°41'0 0.8
2017-Oct-16 03:30N 44°26' E 037°41'1 1.0
2017-Oct-16 02:57N 44°27' E 037°41'1 1.4
2017-Oct-16 02:30N 44°27' E 037°40'510.7
2017-Oct-16 02:01N 44°25' E 037°33'611.0
2017-Oct-16 01:27N 44°22' E 037°26'42413.0
2017-Oct-14 16:45N 40°59' E 028°60'9 8.2
2017-Oct-14 15:38N 40°52' E 028°52'1 7.4
2017-Oct-14 15:31N 40°52' E 028°51'4 7.4
2017-Oct-14 15:01N 40°51' E 028°46'27711.7
2017-Oct-13 15:15N 37°45' E 024°21'1212.4
2017-Oct-13 14:16N 37°37' E 024°09'1712.6
2017-Oct-13 12:56N 37°37' E 023°47'813.2
2017-Oct-13 12:20N 37°43' E 023°40'413.2
2017-Oct-13 12:00N 37°47' E 023°37'612.7
2017-Oct-13 11:30N 37°53' E 023°36'4 8.4
2017-Oct-13 11:01N 37°57' E 023°35'0 0.4
2017-Oct-13 10:28N 37°57' E 023°35'0 0.0
2017-Oct-13 10:00N 37°57' E 023°35'0 0.0
2017-Oct-13 09:30N 37°57' E 023°35'0 0.0
2017-Oct-13 09:01N 37°57' E 023°35'0 0.0
2017-Oct-13 08:30N 37°57' E 023°35'0 0.0
2017-Oct-13 08:00N 37°57' E 023°35'0 0.0
2017-Oct-13 07:30N 37°57' E 023°35'0 0.0
2017-Oct-13 07:00N 37°57' E 023°35'0 0.0
2017-Oct-13 06:30N 37°57' E 023°35'0 0.0
2017-Oct-13 06:00N 37°57' E 023°35'0 0.0
2017-Oct-13 05:30N 37°57' E 023°35'0 0.0
2017-Oct-13 05:00N 37°57' E 023°35'0 0.0
2017-Oct-13 04:30N 37°57' E 023°35'0 0.0
2017-Oct-13 04:00N 37°57' E 023°35'0 0.0
2017-Oct-13 03:30N 37°57' E 023°35'0 0.0
2017-Oct-13 03:00N 37°57' E 023°35'0 0.0
2017-Oct-13 02:30N 37°57' E 023°35'0 0.0
2017-Oct-13 02:00N 37°57' E 023°35'0 0.0
2017-Oct-13 01:30N 37°57' E 023°35'0 0.0
2017-Oct-13 01:00N 37°57' E 023°35'0 0.0
2017-Oct-13 00:31N 37°57' E 023°35'0 0.0
2017-Oct-13 00:01N 37°57' E 023°35'0 0.0
2017-Oct-12 23:30N 37°57' E 023°35'0 0.0
2017-Oct-12 23:00N 37°57' E 023°35'0 0.0
2017-Oct-12 22:25N 37°57' E 023°35'0 0.0
2017-Oct-12 21:58N 37°57' E 023°35'0 0.0
2017-Oct-12 21:29N 37°57' E 023°35'0 0.0
2017-Oct-12 21:00N 37°57' E 023°35'0 0.1
2017-Oct-12 20:31N 37°57' E 023°35'0 0.1
2017-Oct-12 20:00N 37°57' E 023°35'0 0.0
2017-Oct-12 19:30N 37°57' E 023°35'0 0.0
2017-Oct-12 19:01N 37°57' E 023°35'0 0.0
2017-Oct-12 18:31N 37°57' E 023°35'0 0.0
2017-Oct-12 18:00N 37°57' E 023°35'0 0.0
2017-Oct-12 17:30N 37°57' E 023°35'0 0.0
2017-Oct-12 17:01N 37°57' E 023°35'0 0.0
2017-Oct-12 16:31N 37°57' E 023°35'0 0.0
2017-Oct-12 16:00N 37°57' E 023°35'0 0.0
2017-Oct-12 15:31N 37°57' E 023°35'0 0.0
2017-Oct-12 15:00N 37°57' E 023°35'0 0.0
2017-Oct-12 14:30N 37°57' E 023°35'0 0.0
2017-Oct-12 14:00N 37°57' E 023°35'0 0.0
2017-Oct-12 13:31N 37°57' E 023°35'0 0.0
2017-Oct-12 13:00N 37°57' E 023°35'0 0.0
2017-Oct-12 12:31N 37°57' E 023°35'0 0.0
2017-Oct-12 12:00N 37°57' E 023°35'0 0.0
2017-Oct-12 11:30N 37°57' E 023°35'0 0.0
2017-Oct-12 11:00N 37°57' E 023°35'0 0.0
2017-Oct-12 10:30N 37°57' E 023°35'0 0.0
2017-Oct-12 10:00N 37°57' E 023°35'0 0.0
2017-Oct-12 09:30N 37°57' E 023°35'0 0.0
2017-Oct-12 09:00N 37°57' E 023°35'0 0.0
2017-Oct-12 08:30N 37°57' E 023°35'0 0.0
2017-Oct-12 08:00N 37°57' E 023°35'0 0.0
2017-Oct-12 07:30N 37°57' E 023°35'0 0.0
2017-Oct-12 06:59N 37°57' E 023°35'0 0.0
2017-Oct-12 06:29N 37°57' E 023°35'0 0.0
2017-Oct-12 06:00N 37°57' E 023°35'1 1.9
2017-Oct-12 05:30N 37°56' E 023°35'1 2.6
2017-Oct-12 05:00N 37°55' E 023°35'0 0.9
2017-Oct-12 04:30N 37°55' E 023°35'2 3.1
2017-Oct-12 04:00N 37°53' E 023°34'1 1.9
2017-Oct-12 03:28N 37°53' E 023°33'0 0.2
2017-Oct-12 02:58N 37°53' E 023°33'0 0.0
2017-Oct-12 02:28N 37°53' E 023°33'0 0.0
2017-Oct-12 01:58N 37°53' E 023°33'0 0.0
2017-Oct-12 01:28N 37°53' E 023°33'0 0.0
2017-Oct-12 00:58N 37°53' E 023°33'0 0.0
2017-Oct-12 00:28N 37°53' E 023°33'0 0.0
2017-Oct-11 23:58N 37°53' E 023°33'0 0.0
2017-Oct-11 23:28N 37°53' E 023°33'0 0.0
2017-Oct-11 22:58N 37°53' E 023°33'0 0.1
2017-Oct-11 22:28N 37°53' E 023°33'0 0.1
2017-Oct-11 21:58N 37°53' E 023°33'0 0.0
2017-Oct-11 21:28N 37°53' E 023°33'0 0.1
2017-Oct-11 20:58N 37°53' E 023°33'0 0.1
2017-Oct-11 20:28N 37°53' E 023°33'0 0.2
2017-Oct-11 20:00N 37°53' E 023°33'2 3.3
2017-Oct-11 19:30N 37°52' E 023°35'612.8
2017-Oct-11 19:01N 37°48' E 023°41'714.3
2017-Oct-11 18:30N 37°42' E 023°45'713.8
2017-Oct-11 18:01N 37°37' E 023°51'1413.6
2017-Oct-11 17:00N 37°37' E 024°09'301 9.9
2017-Oct-10 10:29N 40°58' E 028°58'  
Track history (hours):
 
Tides and Currents Weather Stations Pressure Air Temp Water Temp Dewpoint Dewpoint Depression Visibility Wind Speed Wind Dir Waves Ship Positions

Michigan Trader

Last reported at 2017-Oct-20 03:30 UTC. Time now 2017-Oct-20 03:36 UTC.
Position N 43°05' E 027°57'.

Length 166 m; draft 9 m.

Type: Ship (hazmat cat D). MMSI: 305282000.

Date/timePositionNaut miles runAvg speedWind from/ knotsBaromVisibWave heightAir tempDewpointWater temp
2017-Oct-20 03:30N 43°05' E 027°57'0 0.1
2017-Oct-20 03:00N 43°05' E 027°57'0 0.0
2017-Oct-20 02:30N 43°05' E 027°57'0 0.0
2017-Oct-20 02:00N 43°05' E 027°57'0 0.0
2017-Oct-20 01:30N 43°05' E 027°57'0 0.0
2017-Oct-20 01:00N 43°05' E 027°57'0 0.0
2017-Oct-20 00:30N 43°05' E 027°57'0 0.0
2017-Oct-19 23:50N 43°05' E 027°57'0 0.0
2017-Oct-19 23:20N 43°05' E 027°57'0 0.0
2017-Oct-19 22:50N 43°05' E 027°57'0 0.0
2017-Oct-19 22:26N 43°05' E 027°57'0 0.0
2017-Oct-19 22:00N 43°05' E 027°57'0 0.0
2017-Oct-19 15:20N 43°05' E 027°56'0 0.0
2017-Oct-19 14:42N 43°05' E 027°56'0 0.0
2017-Oct-19 14:30N 43°05' E 027°56'0 0.0
2017-Oct-19 07:08N 43°05' E 027°57'0 0.1
2017-Oct-19 06:50N 43°05' E 027°57'0 0.4
2017-Oct-19 06:25N 43°05' E 027°57'7 7.2
2017-Oct-19 05:30N 43°11' E 027°59'813.2
2017-Oct-19 04:56N 43°14' E 028°09'613.4
2017-Oct-19 04:29N 43°17' E 028°16'613.3
2017-Oct-19 04:00N 43°19' E 028°24'713.1
2017-Oct-19 03:31N 43°21' E 028°33'612.3
2017-Oct-19 03:01N 43°22' E 028°41'713.4
2017-Oct-19 02:30N 43°28' E 028°44'713.4
2017-Oct-19 02:01N 43°35' E 028°46'713.3
2017-Oct-19 01:30N 43°41' E 028°48'612.5
2017-Oct-19 01:01N 43°48' E 028°49'612.4
2017-Oct-19 00:31N 43°54' E 028°49'612.1
2017-Oct-19 00:00N 43°60' E 028°47'611.2
2017-Oct-18 23:30N 44°04' E 028°43'3 6.2
2017-Oct-18 23:01N 44°07' E 028°40'0 0.6
2017-Oct-18 22:30N 44°06' E 028°40'0 0.0
2017-Oct-18 22:00N 44°06' E 028°40'0 0.0
2017-Oct-18 21:30N 44°06' E 028°40'0 0.0
2017-Oct-18 21:00N 44°06' E 028°40'0 0.0
2017-Oct-18 20:30N 44°06' E 028°40'0 0.0
2017-Oct-18 19:59N 44°06' E 028°40'0 0.0
2017-Oct-18 19:29N 44°06' E 028°40'0 0.0
2017-Oct-18 18:59N 44°06' E 028°40'0 0.0
2017-Oct-18 18:29N 44°06' E 028°40'0 0.0
2017-Oct-18 17:59N 44°06' E 028°40'0 0.0
2017-Oct-18 17:29N 44°06' E 028°40'0 0.0
2017-Oct-18 16:56N 44°06' E 028°40'0 0.0
2017-Oct-18 16:26N 44°06' E 028°40'0 0.0
2017-Oct-18 15:59N 44°06' E 028°40'0 0.0
2017-Oct-18 15:29N 44°06' E 028°40'0 0.0
2017-Oct-18 15:01N 44°06' E 028°40'4 4.3
2017-Oct-18 14:01N 44°04' E 028°45'510.6
2017-Oct-18 13:31N 44°00' E 028°50'713.2
2017-Oct-18 13:01N 44°00' E 028°59'713.2
2017-Oct-18 12:31N 44°00' E 029°08'713.3
2017-Oct-18 12:01N 44°00' E 029°17'713.4
2017-Oct-18 11:30N 44°00' E 029°27'713.4
2017-Oct-18 11:01N 44°00' E 029°36'713.5
2017-Oct-18 10:31N 44°00' E 029°45'2713.7
2017-Oct-18 08:34N 44°00' E 030°22'113.7
2017-Oct-18 08:30N 44°00' E 030°23'29313.3
2017-Oct-17 10:29N 44°21' E 037°11'713.2
2017-Oct-17 09:59N 44°24' E 037°19'613.2
2017-Oct-17 09:30N 44°27' E 037°27'713.0
2017-Oct-17 09:00N 44°30' E 037°35'612.3
2017-Oct-17 08:30N 44°34' E 037°42'5 9.5
2017-Oct-17 08:00N 44°37' E 037°47'4 8.9
2017-Oct-17 07:30N 44°41' E 037°50'2 4.6
2017-Oct-17 07:00N 44°43' E 037°49'0 0.0
2017-Oct-17 06:30N 44°43' E 037°49'0 0.0
2017-Oct-17 06:00N 44°43' E 037°49'0 0.0
2017-Oct-17 05:30N 44°43' E 037°49'0 0.0
2017-Oct-17 04:59N 44°43' E 037°49'0 0.0
2017-Oct-17 04:30N 44°43' E 037°49'0 0.0
2017-Oct-17 04:00N 44°43' E 037°49'0 0.0
2017-Oct-17 03:14N 44°43' E 037°49'0 0.0
2017-Oct-17 03:00N 44°43' E 037°49'0 0.0
2017-Oct-17 02:30N 44°43' E 037°49'0 0.0
2017-Oct-17 02:00N 44°43' E 037°49'0 0.0
2017-Oct-17 01:29N 44°43' E 037°49'0 0.0
2017-Oct-17 01:00N 44°43' E 037°49'0 0.0
2017-Oct-17 00:23N 44°43' E 037°49'0 0.0
2017-Oct-16 23:59N 44°43' E 037°49'0 0.0
2017-Oct-16 23:29N 44°43' E 037°49'0 0.0
2017-Oct-16 22:59N 44°43' E 037°49'0 0.0
2017-Oct-16 22:30N 44°43' E 037°49'0 0.0
2017-Oct-16 22:00N 44°43' E 037°49'0 0.0
2017-Oct-16 21:30N 44°43' E 037°49'0 0.0
2017-Oct-16 21:00N 44°43' E 037°49'0 0.0
2017-Oct-16 20:29N 44°43' E 037°49'0 0.0
2017-Oct-16 20:00N 44°43' E 037°49'0 0.0
2017-Oct-16 19:29N 44°43' E 037°49'0 0.0
2017-Oct-16 19:00N 44°43' E 037°49'0 0.0
2017-Oct-16 18:06N 44°43' E 037°49'0 0.0
2017-Oct-16 18:00N 44°43' E 037°49'0 0.0
2017-Oct-16 17:30N 44°43' E 037°49'0 0.0
2017-Oct-16 16:59N 44°43' E 037°49'0 0.0
2017-Oct-16 16:29N 44°43' E 037°49'0 0.0
2017-Oct-16 16:00N 44°43' E 037°49'0 0.0
2017-Oct-16 15:30N 44°43' E 037°49'0 0.0
2017-Oct-16 14:59N 44°43' E 037°49'0 0.0
2017-Oct-16 14:00N 44°43' E 037°49'0 0.0
2017-Oct-16 13:30N 44°43' E 037°49'0 0.0
2017-Oct-16 13:00N 44°43' E 037°49'0 0.0
2017-Oct-16 12:30N 44°43' E 037°49'0 0.0
2017-Oct-16 12:00N 44°43' E 037°49'0 0.0
2017-Oct-16 11:28N 44°43' E 037°49'0 0.0
2017-Oct-16 10:58N 44°43' E 037°49'0 0.0
2017-Oct-16 10:25N 44°43' E 037°49'0 0.0
2017-Oct-16 09:58N 44°43' E 037°49'0 0.0
2017-Oct-16 09:28N 44°43' E 037°49'0 0.0
2017-Oct-16 08:55N 44°43' E 037°49'0 0.0
2017-Oct-16 08:28N 44°43' E 037°49'0 0.0
2017-Oct-16 07:58N 44°43' E 037°49'0 0.0
2017-Oct-16 07:22N 44°43' E 037°49'0 0.0
2017-Oct-16 06:58N 44°43' E 037°49'0 0.4
2017-Oct-16 06:30N 44°43' E 037°49'3 5.0
2017-Oct-16 06:00N 44°41' E 037°50'4 7.7
2017-Oct-16 05:30N 44°37' E 037°52'3 6.3
2017-Oct-16 05:00N 44°34' E 037°51'510.5
2017-Oct-16 04:30N 44°30' E 037°47'611.1
2017-Oct-16 04:00N 44°26' E 037°41'0 0.8
2017-Oct-16 03:30N 44°26' E 037°41'1 1.0
2017-Oct-16 02:57N 44°27' E 037°41'1 1.4
2017-Oct-16 02:30N 44°27' E 037°40'510.7
2017-Oct-16 02:01N 44°25' E 037°33'611.0
2017-Oct-16 01:27N 44°22' E 037°26'42413.0
2017-Oct-14 16:45N 40°59' E 028°60'9 8.2
2017-Oct-14 15:38N 40°52' E 028°52'1 7.4
2017-Oct-14 15:31N 40°52' E 028°51'4 7.4
2017-Oct-14 15:01N 40°51' E 028°46'27711.7
2017-Oct-13 15:15N 37°45' E 024°21'1212.4
2017-Oct-13 14:16N 37°37' E 024°09'1712.6
2017-Oct-13 12:56N 37°37' E 023°47'813.2
2017-Oct-13 12:20N 37°43' E 023°40'413.2
2017-Oct-13 12:00N 37°47' E 023°37'612.7
2017-Oct-13 11:30N 37°53' E 023°36'4 8.4
2017-Oct-13 11:01N 37°57' E 023°35'0 0.4
2017-Oct-13 10:28N 37°57' E 023°35'0 0.0
2017-Oct-13 10:00N 37°57' E 023°35'0 0.0
2017-Oct-13 09:30N 37°57' E 023°35'0 0.0
2017-Oct-13 09:01N 37°57' E 023°35'0 0.0
2017-Oct-13 08:30N 37°57' E 023°35'0 0.0
2017-Oct-13 08:00N 37°57' E 023°35'0 0.0
2017-Oct-13 07:30N 37°57' E 023°35'0 0.0
2017-Oct-13 07:00N 37°57' E 023°35'0 0.0
2017-Oct-13 06:30N 37°57' E 023°35'0 0.0
2017-Oct-13 06:00N 37°57' E 023°35'0 0.0
2017-Oct-13 05:30N 37°57' E 023°35'0 0.0
2017-Oct-13 05:00N 37°57' E 023°35'0 0.0
2017-Oct-13 04:30N 37°57' E 023°35'0 0.0
2017-Oct-13 04:00N 37°57' E 023°35'0 0.0
2017-Oct-13 03:30N 37°57' E 023°35'0 0.0
2017-Oct-13 03:00N 37°57' E 023°35'0 0.0
2017-Oct-13 02:30N 37°57' E 023°35'0 0.0
2017-Oct-13 02:00N 37°57' E 023°35'0 0.0
2017-Oct-13 01:30N 37°57' E 023°35'0 0.0
2017-Oct-13 01:00N 37°57' E 023°35'0 0.0
2017-Oct-13 00:31N 37°57' E 023°35'0 0.0
2017-Oct-13 00:01N 37°57' E 023°35'0 0.0
2017-Oct-12 23:30N 37°57' E 023°35'0 0.0
2017-Oct-12 23:00N 37°57' E 023°35'0 0.0
2017-Oct-12 22:25N 37°57' E 023°35'0 0.0
2017-Oct-12 21:58N 37°57' E 023°35'0 0.0
2017-Oct-12 21:29N 37°57' E 023°35'0 0.0
2017-Oct-12 21:00N 37°57' E 023°35'0 0.1
2017-Oct-12 20:31N 37°57' E 023°35'0 0.1
2017-Oct-12 20:00N 37°57' E 023°35'0 0.0
2017-Oct-12 19:30N 37°57' E 023°35'0 0.0
2017-Oct-12 19:01N 37°57' E 023°35'0 0.0
2017-Oct-12 18:31N 37°57' E 023°35'0 0.0
2017-Oct-12 18:00N 37°57' E 023°35'0 0.0
2017-Oct-12 17:30N 37°57' E 023°35'0 0.0
2017-Oct-12 17:01N 37°57' E 023°35'0 0.0
2017-Oct-12 16:31N 37°57' E 023°35'0 0.0
2017-Oct-12 16:00N 37°57' E 023°35'0 0.0
2017-Oct-12 15:31N 37°57' E 023°35'0 0.0
2017-Oct-12 15:00N 37°57' E 023°35'0 0.0
2017-Oct-12 14:30N 37°57' E 023°35'0 0.0
2017-Oct-12 14:00N 37°57' E 023°35'0 0.0
2017-Oct-12 13:31N 37°57' E 023°35'0 0.0
2017-Oct-12 13:00N 37°57' E 023°35'0 0.0
2017-Oct-12 12:31N 37°57' E 023°35'0 0.0
2017-Oct-12 12:00N 37°57' E 023°35'0 0.0
2017-Oct-12 11:30N 37°57' E 023°35'0 0.0
2017-Oct-12 11:00N 37°57' E 023°35'0 0.0
2017-Oct-12 10:30N 37°57' E 023°35'0 0.0
2017-Oct-12 10:00N 37°57' E 023°35'0 0.0
2017-Oct-12 09:30N 37°57' E 023°35'0 0.0
2017-Oct-12 09:00N 37°57' E 023°35'0 0.0
2017-Oct-12 08:30N 37°57' E 023°35'0 0.0
2017-Oct-12 08:00N 37°57' E 023°35'0 0.0
2017-Oct-12 07:30N 37°57' E 023°35'0 0.0
2017-Oct-12 06:59N 37°57' E 023°35'0 0.0
2017-Oct-12 06:29N 37°57' E 023°35'0 0.0
2017-Oct-12 06:00N 37°57' E 023°35'1 1.9
2017-Oct-12 05:30N 37°56' E 023°35'1 2.6
2017-Oct-12 05:00N 37°55' E 023°35'0 0.9
2017-Oct-12 04:30N 37°55' E 023°35'2 3.1
2017-Oct-12 04:00N 37°53' E 023°34'1 1.9
2017-Oct-12 03:28N 37°53' E 023°33'0 0.2
2017-Oct-12 02:58N 37°53' E 023°33'0 0.0
2017-Oct-12 02:28N 37°53' E 023°33'0 0.0
2017-Oct-12 01:58N 37°53' E 023°33'0 0.0
2017-Oct-12 01:28N 37°53' E 023°33'0 0.0
2017-Oct-12 00:58N 37°53' E 023°33'0 0.0
2017-Oct-12 00:28N 37°53' E 023°33'0 0.0
2017-Oct-11 23:58N 37°53' E 023°33'0 0.0
2017-Oct-11 23:28N 37°53' E 023°33'0 0.0
2017-Oct-11 22:58N 37°53' E 023°33'0 0.1
2017-Oct-11 22:28N 37°53' E 023°33'0 0.1
2017-Oct-11 21:58N 37°53' E 023°33'0 0.0
2017-Oct-11 21:28N 37°53' E 023°33'0 0.1
2017-Oct-11 20:58N 37°53' E 023°33'0 0.1
2017-Oct-11 20:28N 37°53' E 023°33'0 0.2
2017-Oct-11 20:00N 37°53' E 023°33'2 3.3
2017-Oct-11 19:30N 37°52' E 023°35'612.8
2017-Oct-11 19:01N 37°48' E 023°41'714.3
2017-Oct-11 18:30N 37°42' E 023°45'713.8
2017-Oct-11 18:01N 37°37' E 023°51'1413.6
2017-Oct-11 17:00N 37°37' E 024°09'301 9.9
2017-Oct-10 10:29N 40°58' E 028°58'  

Dump ship's entire track history